Time;durP1;ratioP1;P1;durP2;ratioP2;P2;SDS_P1;SDS_P2;PMS_P1;PMS_P2;Temp;Humidity;BMP_temperature;BMP_pressure;BME280_temperature;BME280_humidity;BME280_pressure;Samples;Min_cycle;Max_cycle;Signal;HPM_P1;HPM_P2
2022/09/13 00:00:14;;;;;;;5.22;4.72;;;20.20;99.90;;;;;;5067899;28;20066;-36
2022/09/13 00:02:40;;;;;;;4.85;4.45;;;20.20;99.90;;;;;;5067379;28;20020;-36
2022/09/13 00:05:05;;;;;;;5.10;4.60;;;20.30;99.90;;;;;;5067108;28;20376;-35
2022/09/13 00:07:31;;;;;;;5.50;5.00;;;20.20;99.90;;;;;;5067131;28;20035;-37
2022/09/13 00:09:56;;;;;;;5.65;5.15;;;20.20;99.90;;;;;;5066497;28;20024;-37
2022/09/13 00:12:22;;;;;;;5.20;4.72;;;20.20;99.90;;;;;;5067381;28;20149;-37
2022/09/13 00:14:47;;;;;;;5.45;5.05;;;20.20;99.90;;;;;;5067157;28;20707;-37
2022/09/13 00:17:13;;;;;;;6.10;5.20;;;20.20;99.90;;;;;;5066858;28;20051;-36
2022/09/13 00:19:38;;;;;;;5.70;5.07;;;20.20;99.90;;;;;;5067160;28;20052;-37
2022/09/13 00:22:05;;;;;;;5.50;5.00;;;20.10;99.90;;;;;;5067104;28;20472;-37
2022/09/13 00:24:32;;;;;;;5.47;4.90;;;20.10;99.90;;;;;;5067177;28;20028;-37
2022/09/13 00:26:58;;;;;;;6.25;5.57;;;20.10;99.90;;;;;;5067455;28;20496;-36
2022/09/13 00:29:24;;;;;;;6.45;5.70;;;20.10;99.90;;;;;;5067416;28;20107;-37
2022/09/13 00:31:49;;;;;;;6.15;5.55;;;20.10;99.90;;;;;;5066755;28;20062;-36
2022/09/13 00:34:15;;;;;;;6.03;5.47;;;20.10;99.90;;;;;;5067090;28;20024;-36
2022/09/13 00:36:40;;;;;;;5.60;5.10;;;20.10;99.90;;;;;;5066952;28;20442;-36
2022/09/13 00:39:06;;;;;;;6.80;5.32;;;20.00;99.90;;;;;;5066270;28;20516;-37
2022/09/13 00:41:32;;;;;;;6.72;5.57;;;20.10;99.90;;;;;;5066311;28;20024;-37
2022/09/13 00:44:00;;;;;;;6.15;5.50;;;20.10;99.90;;;;;;5066761;28;20028;-36
2022/09/13 00:46:31;;;;;;;6.10;5.50;;;20.10;99.90;;;;;;5066077;28;20472;-37
2022/09/13 00:49:11;;;;;;;5.60;5.10;;;20.00;99.90;;;;;;5067302;28;20107;-36
2022/09/13 00:51:37;;;;;;;6.72;6.13;;;20.00;99.90;;;;;;5066079;28;20024;-37
2022/09/13 00:54:03;;;;;;;6.57;5.85;;;20.00;99.90;;;;;;5067089;28;20078;-36
2022/09/13 00:56:38;;;;;;;5.95;5.45;;;20.00;99.90;;;;;;5066097;28;20543;-37
2022/09/13 00:59:11;;;;;;;6.38;5.68;;;20.00;99.90;;;;;;5066136;28;20024;-36
2022/09/13 01:01:43;;;;;;;6.25;5.70;;;20.00;99.90;;;;;;5066193;28;20547;-36
2022/09/13 01:04:10;;;;;;;7.78;6.20;;;20.00;99.90;;;;;;5056718;28;20020;-37
2022/09/13 01:06:39;;;;;;;6.13;5.55;;;20.00;99.90;;;;;;5065347;28;20024;-36
2022/09/13 01:09:05;;;;;;;6.18;5.63;;;20.00;99.90;;;;;;5066059;28;20028;-37
2022/09/13 01:11:59;;;;;;;6.80;6.10;;;20.00;99.90;;;;;;5065534;28;20139;-39
2022/09/13 01:14:26;;;;;;;6.35;5.75;;;20.00;99.90;;;;;;5054000;28;20040;-38
2022/09/13 01:16:52;;;;;;;5.88;5.38;;;20.00;99.90;;;;;;5065698;28;20484;-37
2022/09/13 01:19:18;;;;;;;6.72;6.13;;;20.00;99.90;;;;;;5065688;28;20039;-38
2022/09/13 01:22:01;;;;;;;7.88;6.70;;;19.90;99.90;;;;;;5065240;28;20471;-36
2022/09/13 01:24:30;;;;;;;6.90;6.13;;;19.90;99.90;;;;;;5063280;28;20056;-38
2022/09/13 01:27:26;;;;;;;8.18;7.20;;;19.90;99.90;;;;;;5063315;28;20039;-38
2022/09/13 01:30:06;;;;;;;7.70;6.50;;;19.90;99.90;;;;;;5065293;28;20536;-37
2022/09/13 01:32:56;;;;;;;9.02;7.90;;;19.90;99.90;;;;;;5065404;28;20285;-40
2022/09/13 01:35:41;;;;;;;8.40;7.47;;;19.90;99.90;;;;;;5056147;28;20111;-38
2022/09/13 01:38:41;;;;;;;8.10;7.40;;;19.90;99.90;;;;;;5065332;28;20097;-37
2022/09/13 01:41:24;;;;;;;7.88;7.18;;;19.90;99.90;;;;;;5065388;28;20039;-37
2022/09/13 01:44:12;;;;;;;8.88;8.00;;;19.90;99.90;;;;;;5065012;28;20426;-37
2022/09/13 01:46:55;;;;;;;8.45;7.55;;;19.90;99.90;;;;;;5064749;28;20036;-36
2022/09/13 01:49:21;;;;;;;8.57;7.78;;;19.90;99.90;;;;;;5065042;28;20032;-38
2022/09/13 01:51:59;;;;;;;9.02;7.45;;;19.90;99.90;;;;;;5064888;28;20109;-37
2022/09/13 01:54:57;;;;;;;8.70;7.80;;;19.80;99.90;;;;;;5064257;28;20370;-37
2022/09/13 01:57:37;;;;;;;7.95;7.25;;;19.80;99.90;;;;;;5045064;28;20500;-36
2022/09/13 02:00:12;;;;;;;8.60;7.47;;;19.80;99.90;;;;;;5063025;28;20095;-37
2022/09/13 02:03:09;;;;;;;7.90;7.07;;;19.80;99.90;;;;;;5064344;28;20039;-37
2022/09/13 02:05:50;;;;;;;7.97;7.18;;;19.80;99.90;;;;;;5064829;28;20436;-37
2022/09/13 02:08:24;;;;;;;8.35;7.55;;;19.80;99.90;;;;;;5065433;28;20121;-36
2022/09/13 02:10:59;;;;;;;7.88;7.15;;;19.80;99.90;;;;;;5060253;28;20110;-36
2022/09/13 02:13:30;;;;;;;8.15;7.45;;;19.80;99.90;;;;;;5064009;28;20427;-37
2022/09/13 02:16:01;;;;;;;8.32;7.47;;;19.80;99.90;;;;;;5063707;28;20546;-35
2022/09/13 02:18:38;;;;;;;8.05;7.25;;;19.80;99.90;;;;;;5064511;28;20107;-36
2022/09/13 02:21:16;;;;;;;7.55;6.85;;;19.80;99.90;;;;;;5064002;28;20020;-37
2022/09/13 02:23:48;;;;;;;8.23;7.43;;;19.80;99.90;;;;;;5063792;28;20036;-38
2022/09/13 02:26:14;;;;;;;7.32;6.65;;;19.80;99.90;;;;;;5064160;28;20020;-38
2022/09/13 02:28:48;;;;;;;7.90;7.20;;;19.80;99.90;;;;;;5064569;28;20024;-37
2022/09/13 02:31:18;;;;;;;8.68;7.15;;;19.70;99.90;;;;;;5064436;28;20051;-36
2022/09/13 02:33:51;;;;;;;8.80;6.93;;;19.70;99.90;;;;;;5064422;28;20028;-36
2022/09/13 02:36:25;;;;;;;6.97;6.38;;;19.70;99.90;;;;;;5064739;28;20029;-36
2022/09/13 02:38:58;;;;;;;7.97;7.18;;;19.70;99.90;;;;;;5064041;28;20033;-36
2022/09/13 02:41:45;;;;;;;7.82;7.13;;;19.70;99.90;;;;;;5064236;28;20046;-36
2022/09/13 02:44:37;;;;;;;8.65;7.32;;;19.70;99.90;;;;;;5064024;28;20107;-37
2022/09/13 02:47:27;;;;;;;7.22;6.28;;;19.70;99.90;;;;;;5060613;28;20566;-38
2022/09/13 02:50:17;;;;;;;7.65;6.28;;;19.70;99.90;;;;;;5064525;28;20028;-37
2022/09/13 02:53:07;;;;;;;7.35;6.72;;;19.70;99.90;;;;;;5053036;28;20467;-37
2022/09/13 02:55:48;;;;;;;7.00;6.32;;;19.70;99.90;;;;;;5064350;28;20028;-37
2022/09/13 02:58:45;;;;;;;5.82;5.30;;;19.70;99.90;;;;;;5063972;28;20082;-36
2022/09/13 03:01:11;;;;;;;6.88;6.28;;;19.70;99.90;;;;;;5064352;28;20047;-36
2022/09/13 03:03:37;;;;;;;6.43;5.82;;;19.70;99.90;;;;;;5064179;28;20032;-36
2022/09/13 03:06:03;;;;;;;7.65;6.85;;;19.70;99.90;;;;;;5063590;28;20029;-39
2022/09/13 03:08:29;;;;;;;7.60;6.80;;;19.70;99.90;;;;;;5063928;28;20059;-37
2022/09/13 03:10:57;;;;;;;8.68;7.20;;;19.70;99.90;;;;;;5063551;28;20024;-36
2022/09/13 03:13:41;;;;;;;7.82;7.13;;;19.70;99.90;;;;;;5052657;28;20033;-37
2022/09/13 03:16:47;;;;;;;8.80;7.88;;;19.70;99.90;;;;;;5063654;28;20020;-37
2022/09/13 03:19:31;;;;;;;8.07;7.28;;;19.60;99.90;;;;;;5061851;28;20122;-37
2022/09/13 03:22:02;;;;;;;7.68;6.97;;;19.60;99.90;;;;;;5064043;28;20029;-37
2022/09/13 03:24:42;;;;;;;7.70;6.93;;;19.50;99.90;;;;;;5064411;28;20035;-37
2022/09/13 03:27:23;;;;;;;7.90;7.10;;;19.60;99.90;;;;;;5067469;28;20446;-37
2022/09/13 03:30:02;;;;;;;7.45;6.68;;;19.50;99.90;;;;;;5067913;28;20046;-47
2022/09/13 03:32:59;;;;;;;8.50;7.13;;;19.60;99.90;;;;;;5067925;28;20032;-37
2022/09/13 03:35:30;;;;;;;7.50;6.80;;;19.60;99.90;;;;;;5047888;28;20035;-37
2022/09/13 03:38:02;;;;;;;7.93;7.05;;;19.60;99.90;;;;;;5062621;28;20109;-36
2022/09/13 03:40:39;;;;;;;7.50;6.80;;;19.60;99.90;;;;;;5066857;28;20358;-37
2022/09/13 03:43:34;;;;;;;7.82;7.00;;;19.60;99.90;;;;;;5068219;28;20025;-37
2022/09/13 03:46:08;;;;;;;7.70;7.00;;;19.60;99.90;;;;;;5048431;28;20025;-39
2022/09/13 03:48:36;;;;;;;7.72;6.93;;;19.50;99.90;;;;;;5063936;28;20032;-36
2022/09/13 03:51:04;;;;;;;9.95;7.40;;;19.50;99.90;;;;;;5067828;28;20029;-38
2022/09/13 03:53:31;;;;;;;8.50;7.47;;;19.50;99.90;;;;;;5067784;28;20047;-36
2022/09/13 03:55:56;;;;;;;8.00;7.20;;;19.50;99.90;;;;;;5067225;28;20024;-38
2022/09/13 03:58:24;;;;;;;7.53;6.82;;;19.60;99.90;;;;;;5067209;28;20569;-37
2022/09/13 04:00:53;;;;;;;7.78;7.07;;;19.50;99.90;;;;;;5067254;28;20052;-37
2022/09/13 04:03:19;;;;;;;10.45;7.25;;;19.50;99.90;;;;;;5066711;28;20031;-36
2022/09/13 04:05:45;;;;;;;8.18;7.38;;;19.50;99.90;;;;;;5067099;28;20024;-37
2022/09/13 04:08:11;;;;;;;9.48;7.40;;;19.50;99.90;;;;;;5067224;28;20511;-37
2022/09/13 04:10:37;;;;;;;8.07;7.28;;;19.50;99.90;;;;;;5067327;28;20037;-36
2022/09/13 04:13:02;;;;;;;7.57;6.80;;;19.60;99.90;;;;;;5067062;28;20012;-36
2022/09/13 04:15:32;;;;;;;8.13;7.40;;;19.50;99.90;;;;;;5066477;28;20059;-36
2022/09/13 04:17:58;;;;;;;8.20;7.38;;;19.50;99.90;;;;;;5066778;28;20046;-38
2022/09/13 04:20:24;;;;;;;8.02;7.22;;;19.50;99.90;;;;;;5067028;28;20705;-37
2022/09/13 04:22:54;;;;;;;8.20;7.40;;;19.60;99.90;;;;;;5066186;28;20107;-36
2022/09/13 04:25:21;;;;;;;7.97;7.18;;;19.50;99.90;;;;;;5063811;28;20226;-37
2022/09/13 04:27:47;;;;;;;7.93;7.13;;;19.50;99.90;;;;;;5066519;28;20037;-37
2022/09/13 04:30:12;;;;;;;7.70;7.00;;;19.50;99.90;;;;;;5066301;28;20036;-37
2022/09/13 04:32:38;;;;;;;8.10;7.30;;;19.50;99.90;;;;;;5067043;28;20083;-38
2022/09/13 04:35:04;;;;;;;7.82;6.93;;;19.50;99.90;;;;;;5066310;28;20024;-36
2022/09/13 04:37:29;;;;;;;8.00;7.15;;;19.50;99.90;;;;;;5065092;28;20035;-37
2022/09/13 04:39:55;;;;;;;7.65;6.93;;;19.50;99.90;;;;;;5066647;28;20017;-36
2022/09/13 04:42:20;;;;;;;7.28;6.57;;;19.50;99.90;;;;;;5066941;28;20344;-37
2022/09/13 04:44:48;;;;;;;7.95;7.15;;;19.50;99.90;;;;;;5065884;28;20029;-38
2022/09/13 04:47:14;;;;;;;7.75;6.95;;;19.40;99.90;;;;;;5066968;28;20094;-38
2022/09/13 04:49:39;;;;;;;7.18;6.57;;;19.40;99.90;;;;;;5066392;28;20025;-38
2022/09/13 04:52:05;;;;;;;8.70;7.40;;;19.40;99.90;;;;;;5066197;28;20089;-37
2022/09/13 04:54:30;;;;;;;8.40;7.32;;;19.30;99.90;;;;;;5066519;28;20008;-37
2022/09/13 04:56:56;;;;;;;8.07;7.28;;;19.30;99.90;;;;;;5066563;28;20514;-36
2022/09/13 04:59:22;;;;;;;8.32;7.47;;;19.20;99.90;;;;;;5066831;28;20028;-37
2022/09/13 05:01:47;;;;;;;7.45;6.75;;;19.20;99.90;;;;;;5065840;28;20442;-38
2022/09/13 05:04:13;;;;;;;7.82;7.10;;;19.20;99.90;;;;;;5066928;28;20492;-36
2022/09/13 05:06:38;;;;;;;7.63;6.50;;;19.20;99.90;;;;;;5065875;28;20021;-36
2022/09/13 05:09:04;;;;;;;7.80;6.85;;;19.20;99.90;;;;;;5066420;28;20040;-36
2022/09/13 05:11:30;;;;;;;9.52;7.30;;;19.10;99.90;;;;;;5065265;28;20143;-37
2022/09/13 05:13:58;;;;;;;8.15;7.30;;;19.20;99.90;;;;;;5065950;28;20483;-38
2022/09/13 05:16:25;;;;;;;8.20;7.40;;;19.20;99.90;;;;;;5065970;28;20071;-36
2022/09/13 05:18:52;;;;;;;10.82;7.53;;;19.20;99.90;;;;;;5051665;28;20036;-36
2022/09/13 05:21:18;;;;;;;8.15;7.35;;;19.20;99.90;;;;;;5065592;28;20472;-38
2022/09/13 05:23:47;;;;;;;10.00;7.50;;;19.20;99.90;;;;;;5065320;28;20656;-36
2022/09/13 05:26:12;;;;;;;9.15;8.23;;;19.30;99.90;;;;;;5065449;28;20492;-37
2022/09/13 05:28:38;;;;;;;9.77;8.80;;;19.20;99.90;;;;;;5065929;28;20037;-37
2022/09/13 05:31:11;;;;;;;8.60;7.60;;;19.30;99.90;;;;;;5066019;28;20040;-37
2022/09/13 05:33:37;;;;;;;8.95;7.85;;;19.20;99.90;;;;;;5065238;28;20041;-38
2022/09/13 05:36:05;;;;;;;9.73;8.75;;;19.20;99.90;;;;;;5069853;28;20468;-37
2022/09/13 05:38:30;;;;;;;9.93;9.00;;;19.20;99.90;;;;;;5065145;28;20032;-37
2022/09/13 05:40:58;;;;;;;10.05;9.15;;;19.20;99.90;;;;;;5064717;28;20090;-37
2022/09/13 05:43:26;;;;;;;9.68;8.73;;;19.10;99.90;;;;;;5066078;28;20028;-36
2022/09/13 05:46:00;;;;;;;10.40;8.95;;;19.10;99.90;;;;;;5068523;28;20031;-37
2022/09/13 05:48:25;;;;;;;9.38;8.48;;;19.20;99.90;;;;;;5061370;28;20021;-37
2022/09/13 05:50:51;;;;;;;9.80;8.70;;;19.20;99.90;;;;;;5063435;28;20055;-37
2022/09/13 05:53:16;;;;;;;9.32;8.43;;;19.20;99.90;;;;;;5064879;28;20028;-37
2022/09/13 05:55:42;;;;;;;9.48;8.30;;;19.20;99.90;;;;;;5063482;28;20400;-37
2022/09/13 05:58:07;;;;;;;9.20;8.27;;;19.30;99.90;;;;;;5064203;28;20496;-37
2022/09/13 06:00:33;;;;;;;9.77;8.63;;;19.30;99.90;;;;;;5064057;28;20531;-37
2022/09/13 06:02:59;;;;;;;9.15;8.25;;;19.40;99.90;;;;;;5064546;28;20468;-38
2022/09/13 06:05:25;;;;;;;9.13;8.23;;;19.40;99.90;;;;;;5063905;28;20032;-38
2022/09/13 06:07:50;;;;;;;8.40;7.57;;;19.50;99.90;;;;;;5063899;28;20020;-36
2022/09/13 06:10:16;;;;;;;9.82;8.73;;;19.50;99.90;;;;;;5064052;28;20024;-37
2022/09/13 06:12:42;;;;;;;9.30;8.40;;;19.50;99.90;;;;;;5063640;28;20076;-38
2022/09/13 06:15:08;;;;;;;8.82;7.93;;;19.50;99.90;;;;;;5062665;28;20028;-37
2022/09/13 06:17:33;;;;;;;9.35;8.45;;;19.50;99.90;;;;;;5063863;28;20028;-38
2022/09/13 06:19:59;;;;;;;9.93;8.98;;;19.60;99.90;;;;;;5064235;28;20074;-36
2022/09/13 06:22:24;;;;;;;10.85;9.48;;;19.60;99.90;;;;;;5063024;28;20016;-36
2022/09/13 06:24:50;;;;;;;10.00;9.00;;;19.70;99.90;;;;;;5063662;28;20048;-36
2022/09/13 06:27:15;;;;;;;10.05;9.02;;;19.70;99.90;;;;;;5064253;28;20484;-36
2022/09/13 06:29:41;;;;;;;9.82;8.82;;;19.80;99.90;;;;;;5062680;28;20024;-36
2022/09/13 06:32:06;;;;;;;9.88;8.88;;;19.80;99.90;;;;;;5063506;28;20032;-38
2022/09/13 06:34:32;;;;;;;10.45;9.18;;;19.90;99.90;;;;;;5063625;28;20024;-37
2022/09/13 06:36:58;;;;;;;10.57;9.23;;;19.90;99.90;;;;;;5062927;28;20102;-37
2022/09/13 06:39:23;;;;;;;9.00;8.10;;;20.00;99.90;;;;;;5062749;28;20032;-37
2022/09/13 06:41:49;;;;;;;9.70;8.50;;;20.00;99.90;;;;;;5064263;28;20086;-37
2022/09/13 06:44:14;;;;;;;10.60;9.50;;;20.10;99.90;;;;;;5062422;28;20036;-37
2022/09/13 06:46:40;;;;;;;10.18;9.18;;;20.10;99.90;;;;;;5063546;28;20473;-37
2022/09/13 06:49:07;;;;;;;10.82;9.57;;;20.10;99.90;;;;;;5063331;28;20107;-37
2022/09/13 06:51:33;;;;;;;9.25;8.35;;;20.20;99.90;;;;;;5062939;28;20032;-38
2022/09/13 06:54:00;;;;;;;10.68;9.35;;;20.20;99.90;;;;;;5064347;28;20383;-38
2022/09/13 06:56:34;;;;;;;10.05;9.05;;;20.20;99.90;;;;;;5063924;28;20499;-38
2022/09/13 06:59:03;;;;;;;10.18;9.05;;;20.20;99.90;;;;;;5063008;28;20025;-36
2022/09/13 07:01:34;;;;;;;10.85;9.55;;;20.20;99.90;;;;;;5064532;28;20032;-37
2022/09/13 07:04:05;;;;;;;10.55;9.02;;;20.20;99.90;;;;;;5063110;28;20021;-36
2022/09/13 07:06:36;;;;;;;12.80;9.38;;;20.20;99.90;;;;;;5064177;28;20067;-36
2022/09/13 07:09:04;;;;;;;9.98;8.93;;;20.30;99.90;;;;;;5063675;28;20021;-36
2022/09/13 07:11:33;;;;;;;9.18;8.15;;;20.30;99.90;;;;;;5063374;28;20384;-37
2022/09/13 07:13:59;;;;;;;10.65;9.50;;;20.40;99.90;;;;;;5063961;28;20097;-37
2022/09/13 07:16:27;;;;;;;10.00;8.73;;;20.50;99.90;;;;;;5063943;28;20021;-36
2022/09/13 07:18:58;;;;;;;10.43;9.35;;;20.50;99.90;;;;;;5063297;28;20488;-37
2022/09/13 07:21:25;;;;;;;9.43;8.10;;;20.60;99.90;;;;;;5064053;28;20021;-37
2022/09/13 07:23:52;;;;;;;10.07;8.77;;;20.70;99.90;;;;;;5063287;28;20523;-37
2022/09/13 07:26:18;;;;;;;10.18;9.05;;;20.70;99.90;;;;;;5063654;28;20461;-36
2022/09/13 07:28:46;;;;;;;11.38;10.18;;;20.80;99.90;;;;;;5063714;28;20431;-36
2022/09/13 07:31:19;;;;;;;10.90;9.52;;;20.80;99.90;;;;;;5064918;28;20052;-37
2022/09/13 07:33:45;;;;;;;11.48;10.02;;;20.80;99.90;;;;;;5062281;28;20031;-39
2022/09/13 07:36:12;;;;;;;14.52;11.80;;;20.70;99.90;;;;;;5064280;28;20456;-37
2022/09/13 07:38:40;;;;;;;13.43;10.13;;;20.70;99.90;;;;;;5064185;28;20023;-37
2022/09/13 07:41:08;;;;;;;16.23;12.98;;;20.70;99.90;;;;;;5062623;28;20391;-39
2022/09/13 07:43:35;;;;;;;14.45;11.80;;;20.70;99.90;;;;;;5063684;28;20105;-38
2022/09/13 07:46:06;;;;;;;13.57;11.88;;;20.70;99.90;;;;;;5063742;28;20044;-37
2022/09/13 07:48:34;;;;;;;13.57;9.43;;;20.70;99.90;;;;;;5063898;28;20021;-37
2022/09/13 07:51:06;;;;;;;11.00;9.52;;;20.70;99.90;;;;;;5063440;28;20446;-37
2022/09/13 07:53:33;;;;;;;15.23;11.60;;;20.80;99.90;;;;;;5062827;28;20094;-37
2022/09/13 07:56:13;;;;;;;12.07;10.73;;;20.80;99.90;;;;;;5063431;28;20025;-37
2022/09/13 07:58:41;;;;;;;11.85;10.05;;;20.80;99.90;;;;;;5062467;28;20401;-36
2022/09/13 08:01:13;;;;;;;10.70;8.75;;;20.90;99.90;;;;;;5062420;28;20052;-35
2022/09/13 08:03:39;;;;;;;10.25;7.65;;;21.00;99.90;;;;;;5063355;28;20326;-36
2022/09/13 08:06:06;;;;;;;8.07;7.07;;;21.00;99.90;;;;;;5062930;28;20080;-37
2022/09/13 08:08:32;;;;;;;7.95;6.10;;;21.10;99.90;;;;;;5062430;28;20028;-36
2022/09/13 08:10:58;;;;;;;6.90;6.13;;;21.20;99.90;;;;;;5063610;28;20020;-36
2022/09/13 08:13:24;;;;;;;7.00;5.47;;;21.20;99.90;;;;;;5066495;28;20464;-38
2022/09/13 08:15:50;;;;;;;4.78;4.15;;;21.30;99.90;;;;;;5065987;28;20024;-38
2022/09/13 08:18:17;;;;;;;4.88;4.30;;;21.40;99.90;;;;;;5066894;28;20012;-37
2022/09/13 08:20:42;;;;;;;7.30;5.35;;;21.50;99.90;;;;;;5066572;28;20030;-39
2022/09/13 08:23:09;;;;;;;6.60;4.22;;;21.50;99.90;;;;;;5065960;28;20346;-38
2022/09/13 08:25:36;;;;;;;4.05;3.25;;;21.60;99.90;;;;;;5066368;28;20036;-36
2022/09/13 08:28:09;;;;;;;4.35;3.33;;;21.60;99.90;;;;;;5066307;28;20020;-38
2022/09/13 08:30:36;;;;;;;5.55;4.97;;;21.60;99.90;;;;;;5066023;28;20033;-38
2022/09/13 08:33:05;;;;;;;10.70;7.80;;;21.60;99.90;;;;;;5066546;28;20127;-37
2022/09/13 08:35:32;;;;;;;8.55;7.07;;;21.60;99.90;;;;;;5065664;28;20033;-37
2022/09/13 08:37:58;;;;;;;9.52;6.57;;;21.60;99.90;;;;;;5065949;28;20499;-37
2022/09/13 08:40:27;;;;;;;9.43;8.43;;;21.70;99.90;;;;;;5067141;28;20063;-36
2022/09/13 08:43:05;;;;;;;9.27;7.45;;;21.80;99.90;;;;;;5065661;28;20032;-36
2022/09/13 08:45:31;;;;;;;10.85;7.85;;;21.80;99.90;;;;;;5066838;28;20024;-36
2022/09/13 08:48:28;;;;;;;9.18;7.45;;;21.90;99.90;;;;;;5066387;28;20047;-37
2022/09/13 08:51:00;;;;;;;15.90;11.10;;;22.00;99.90;;;;;;5064515;28;20590;-36
2022/09/13 08:53:29;;;;;;;17.10;11.50;;;21.90;99.90;;;;;;5065950;28;20057;-37
2022/09/13 08:56:07;;;;;;;12.60;9.80;;;21.90;99.90;;;;;;5066028;28;20525;-37
2022/09/13 08:58:45;;;;;;;9.73;8.52;;;21.90;99.90;;;;;;5064989;28;20048;-38
2022/09/13 09:01:29;;;;;;;11.02;9.75;;;22.00;99.90;;;;;;5066129;28;20566;-37
2022/09/13 09:04:25;;;;;;;10.57;8.10;;;22.00;99.90;;;;;;5065005;28;20438;-37
2022/09/13 09:07:00;;;;;;;8.48;7.68;;;22.00;99.90;;;;;;5045993;28;20449;-37
2022/09/13 09:09:31;;;;;;;8.40;6.72;;;22.00;99.90;;;;;;5064723;28;20040;-37
2022/09/13 09:12:06;;;;;;;10.93;8.82;;;22.10;99.90;;;;;;5066055;28;20055;-36
2022/09/13 09:14:45;;;;;;;9.10;7.97;;;22.10;99.90;;;;;;5065098;28;20013;-37
2022/09/13 09:17:21;;;;;;;7.75;7.05;;;22.20;99.90;;;;;;5066818;28;20462;-36
2022/09/13 09:19:53;;;;;;;9.10;8.07;;;22.10;99.90;;;;;;5064769;28;20064;-38
2022/09/13 09:22:23;;;;;;;8.75;7.38;;;22.10;99.90;;;;;;5066370;28;20028;-38
2022/09/13 09:24:55;;;;;;;8.48;7.22;;;22.20;99.90;;;;;;5064720;28;20809;-38
2022/09/13 09:27:21;;;;;;;7.18;6.47;;;22.20;99.90;;;;;;5065904;28;20116;-38
2022/09/13 09:29:57;;;;;;;7.15;5.45;;;22.20;99.90;;;;;;5064916;28;20131;-36
2022/09/13 09:32:37;;;;;;;6.80;5.38;;;22.20;99.90;;;;;;5045799;28;20083;-36
2022/09/13 09:35:15;;;;;;;10.60;7.63;;;22.20;99.90;;;;;;5064493;28;20219;-36
2022/09/13 09:37:42;;;;;;;6.05;5.45;;;22.20;99.90;;;;;;5045833;28;20032;-38
2022/09/13 09:40:12;;;;;;;5.28;4.78;;;22.10;99.90;;;;;;5061503;28;20150;-38
2022/09/13 09:42:44;;;;;;;6.88;5.18;;;22.10;99.90;;;;;;5065637;28;20078;-37
2022/09/13 09:45:32;;;;;;;5.43;4.90;;;22.20;99.90;;;;;;5066015;28;20059;-37
2022/09/13 09:48:03;;;;;;;6.95;5.32;;;22.20;99.90;;;;;;5044975;28;20037;-37
2022/09/13 09:50:35;;;;;;;5.35;4.50;;;22.30;99.90;;;;;;5060392;28;20115;-36
2022/09/13 09:53:05;;;;;;;6.97;4.73;;;22.30;99.90;;;;;;5044755;28;20127;-38
2022/09/13 09:55:38;;;;;;;6.40;5.05;;;22.30;99.90;;;;;;5060055;28;20021;-37
2022/09/13 09:58:11;;;;;;;5.25;3.72;;;22.30;99.90;;;;;;5065257;28;20512;-37
2022/09/13 10:00:56;;;;;;;4.50;4.00;;;22.30;99.90;;;;;;5064652;28;20054;-37
2022/09/13 10:03:27;;;;;;;4.38;3.97;;;22.40;99.90;;;;;;5045596;28;20057;-37
2022/09/13 10:06:13;;;;;;;5.57;4.63;;;22.30;99.90;;;;;;5059954;28;20495;-36
2022/09/13 10:08:41;;;;;;;4.75;3.47;;;22.30;99.90;;;;;;5044328;28;20036;-36
2022/09/13 10:11:08;;;;;;;5.40;3.58;;;22.40;99.90;;;;;;5059924;28;20032;-36
2022/09/13 10:13:37;;;;;;;6.93;4.53;;;22.40;99.90;;;;;;5064488;28;20078;-36
2022/09/13 10:16:26;;;;;;;6.15;5.10;;;22.50;99.90;;;;;;5064489;28;20035;-37
2022/09/13 10:18:52;;;;;;;4.05;3.47;;;22.50;99.90;;;;;;5064347;28;20423;-36
2022/09/13 10:21:17;;;;;;;3.80;2.90;;;22.50;99.90;;;;;;5064214;28;20569;-36
2022/09/13 10:23:45;;;;;;;3.40;2.78;;;22.60;99.90;;;;;;5064772;28;20016;-36
2022/09/13 10:26:18;;;;;;;3.58;3.28;;;22.70;99.90;;;;;;5064904;28;20107;-38
2022/09/13 10:28:52;;;;;;;3.33;3.00;;;22.80;99.90;;;;;;5063648;28;20056;-37
2022/09/13 10:31:19;;;;;;;5.50;2.58;;;22.80;99.90;;;;;;5065115;28;20078;-39
2022/09/13 10:33:58;;;;;;;3.30;3.00;;;22.80;99.90;;;;;;5063920;28;20025;-37
2022/09/13 10:36:30;;;;;;;4.00;3.33;;;22.90;99.90;;;;;;5063580;28;20404;-38
2022/09/13 10:39:01;;;;;;;4.40;3.70;;;22.90;99.90;;;;;;5065016;28;20035;-40
2022/09/13 10:41:31;;;;;;;3.05;2.78;;;23.00;99.90;;;;;;5064055;28;20044;-38
2022/09/13 10:43:58;;;;;;;2.97;2.55;;;22.90;99.90;;;;;;5061809;28;20028;-36
2022/09/13 10:46:26;;;;;;;3.33;2.70;;;22.90;99.90;;;;;;5054003;28;20099;-37
2022/09/13 10:48:55;;;;;;;2.85;2.55;;;23.00;99.90;;;;;;5064544;28;20158;-36
2022/09/13 10:51:28;;;;;;;2.75;2.38;;;23.00;99.90;;;;;;5064228;28;20070;-37
2022/09/13 10:54:21;;;;;;;2.60;2.40;;;23.00;99.90;;;;;;5064254;28;20017;-38
2022/09/13 10:56:48;;;;;;;2.85;2.40;;;23.10;99.90;;;;;;5062631;28;20131;-37
2022/09/13 10:59:26;;;;;;;2.78;2.00;;;23.20;99.90;;;;;;5064118;28;20434;-37
2022/09/13 11:02:09;;;;;;;1.92;1.80;;;23.30;99.90;;;;;;5064054;28;20123;-37
2022/09/13 11:05:00;;;;;;;2.65;2.03;;;23.30;99.90;;;;;;5063377;28;20025;-38
2022/09/13 11:08:06;;;;;;;3.42;1.50;;;23.40;99.90;;;;;;5064055;28;20197;-38
2022/09/13 11:10:36;;;;;;;4.78;1.65;;;23.50;99.90;;;;;;5063015;28;20051;-37
2022/09/13 11:13:16;;;;;;;1.85;1.60;;;23.50;99.90;;;;;;5063362;28;20075;-37
2022/09/13 11:16:03;;;;;;;2.45;1.90;;;23.60;99.90;;;;;;5064040;28;20017;-37
2022/09/13 11:18:48;;;;;;;1.80;1.70;;;23.60;99.90;;;;;;5063193;28;20070;-36
2022/09/13 11:21:45;;;;;;;2.10;1.40;;;23.50;99.90;;;;;;5043876;28;20108;-37
2022/09/13 11:24:22;;;;;;;1.60;1.48;;;23.50;99.90;;;;;;5062844;28;20048;-36
2022/09/13 11:27:13;;;;;;;1.40;1.30;;;23.50;99.90;;;;;;5063309;28;20043;-37
2022/09/13 11:30:03;;;;;;;1.45;1.20;;;23.50;99.90;;;;;;5063787;28;20040;-36
2022/09/13 11:32:52;;;;;;;1.77;1.20;;;23.50;99.90;;;;;;5062313;28;20032;-36
2022/09/13 11:35:51;;;;;;;1.50;1.10;;;23.60;99.90;;;;;;5054723;28;20039;-37
2022/09/13 11:38:57;;;;;;;3.00;1.17;;;23.60;99.90;;;;;;5063174;28;20116;-37
2022/09/13 11:41:50;;;;;;;1.25;0.85;;;23.70;99.90;;;;;;5059721;28;20032;-37
2022/09/13 11:44:46;;;;;;;3.47;0.88;;;23.70;99.90;;;;;;5058932;28;20032;-37
2022/09/13 11:47:36;;;;;;;1.38;0.70;;;23.80;99.90;;;;;;5046122;28;20027;-37
2022/09/13 11:50:40;;;;;;;0.98;0.70;;;23.80;99.90;;;;;;5066444;28;20107;-37
2022/09/13 11:53:32;;;;;;;0.88;0.50;;;23.80;99.90;;;;;;5067009;28;20040;-37
2022/09/13 11:56:02;;;;;;;0.93;0.60;;;23.80;99.90;;;;;;5057768;28;20025;-36
2022/09/13 11:58:32;;;;;;;1.15;0.80;;;23.80;99.90;;;;;;5066704;28;20045;-38
2022/09/13 12:01:05;;;;;;;1.75;0.90;;;23.80;99.90;;;;;;5066328;28;20025;-38
2022/09/13 12:03:41;;;;;;;2.60;0.80;;;23.80;99.90;;;;;;5067729;28;20028;-36
2022/09/13 12:06:24;;;;;;;1.23;0.90;;;23.80;99.90;;;;;;5067631;28;20039;-37
2022/09/13 12:09:00;;;;;;;1.15;0.80;;;23.70;99.80;;;;;;5066768;28;20094;-37
2022/09/13 12:11:33;;;;;;;1.80;1.00;;;23.70;99.90;;;;;;5056896;28;20044;-37
2022/09/13 12:14:03;;;;;;;1.10;0.80;;;23.70;99.90;;;;;;5066202;28;20016;-36
2022/09/13 12:16:56;;;;;;;1.58;0.90;;;23.70;99.90;;;;;;5066954;28;20048;-36
2022/09/13 12:19:30;;;;;;;3.83;0.90;;;23.70;99.90;;;;;;5067743;28;20025;-36
2022/09/13 12:21:59;;;;;;;1.98;1.00;;;23.70;99.90;;;;;;5066177;28;20028;-36
2022/09/13 12:24:42;;;;;;;1.83;0.90;;;23.70;99.90;;;;;;5066993;28;20517;-38
2022/09/13 12:27:20;;;;;;;3.47;1.27;;;23.80;99.90;;;;;;5058598;28;20025;-37
2022/09/13 12:29:56;;;;;;;3.35;1.40;;;23.80;99.20;;;;;;5066634;28;20741;-36
2022/09/13 12:32:22;;;;;;;1.60;0.95;;;23.70;98.90;;;;;;5067195;28;20089;-37
2022/09/13 12:34:57;;;;;;;1.00;0.85;;;23.50;99.10;;;;;;5065318;28;20016;-37
2022/09/13 12:37:41;;;;;;;2.63;0.80;;;23.50;99.00;;;;;;5066913;28;20029;-37
2022/09/13 12:40:16;;;;;;;0.50;0.50;;;23.50;99.40;;;;;;5066527;28;20020;-37
2022/09/13 12:42:56;;;;;;;0.65;0.63;;;23.50;99.30;;;;;;5065685;28;20028;-38
2022/09/13 12:45:33;;;;;;;1.35;0.65;;;23.50;99.30;;;;;;5066224;28;20033;-37
2022/09/13 12:48:29;;;;;;;2.10;1.08;;;23.60;99.50;;;;;;5066775;28;20063;-37
2022/09/13 12:51:01;;;;;;;3.90;1.00;;;23.80;98.20;;;;;;5066280;28;20017;-37
2022/09/13 12:53:45;;;;;;;0.93;0.70;;;23.80;98.20;;;;;;5066740;28;20144;-37
2022/09/13 12:56:22;;;;;;;0.65;0.60;;;23.90;98.50;;;;;;5066336;28;20366;-38
2022/09/13 12:59:09;;;;;;;0.93;0.50;;;24.00;98.50;;;;;;5065893;28;20033;-38
2022/09/13 13:01:35;;;;;;;0.80;0.50;;;24.10;98.60;;;;;;5066872;28;20134;-38
2022/09/13 13:04:03;;;;;;;0.77;0.70;;;24.20;98.50;;;;;;5065610;28;20036;-37
2022/09/13 13:06:34;;;;;;;0.70;0.70;;;24.20;98.40;;;;;;5065983;28;20013;-38
2022/09/13 13:09:04;;;;;;;1.45;0.90;;;24.30;98.30;;;;;;5066754;28;20024;-38
2022/09/13 13:11:45;;;;;;;1.00;0.70;;;24.30;97.90;;;;;;5064351;28;20075;-37
2022/09/13 13:14:38;;;;;;;0.80;0.70;;;24.20;98.00;;;;;;5066032;28;20063;-37